Time;durP1;ratioP1;P1;durP2;ratioP2;P2;SDS_P1;SDS_P2;PMS_P1;PMS_P2;Temp;Humidity;BMP_temperature;BMP_pressure;BME280_temperature;BME280_humidity;BME280_pressure;Samples;Min_cycle;Max_cycle;Signal;HPM_P1;HPM_P2
2021/07/18 00:02:09;;;;;;;2.70;1.80;;;18.70;98.00;;;;;;5112165;28;20818;-65
2021/07/18 00:04:37;;;;;;;1.53;1.53;;;18.70;98.00;;;;;;5110864;28;20534;-66
2021/07/18 00:07:06;;;;;;;1.67;1.57;;;18.60;98.00;;;;;;5113677;28;20522;-65
2021/07/18 00:09:33;;;;;;;2.00;1.70;;;18.60;98.00;;;;;;5115713;28;20815;-65
2021/07/18 00:12:00;;;;;;;2.13;1.50;;;18.50;98.00;;;;;;5115896;28;20515;-65
2021/07/18 00:14:27;;;;;;;2.00;1.50;;;18.50;98.00;;;;;;5115905;28;20539;-65
2021/07/18 00:16:54;;;;;;;3.00;1.87;;;18.40;98.00;;;;;;5115922;28;20542;-66
2021/07/18 00:19:21;;;;;;;2.80;1.70;;;18.40;98.00;;;;;;5114645;28;20510;-65
2021/07/18 00:21:48;;;;;;;1.77;1.63;;;18.30;98.00;;;;;;5115996;28;20493;-65
2021/07/18 00:24:16;;;;;;;1.70;1.60;;;18.40;98.00;;;;;;5115844;28;20493;-65
2021/07/18 00:26:43;;;;;;;1.80;1.80;;;18.40;98.00;;;;;;5115600;28;20447;-65
2021/07/18 00:29:10;;;;;;;1.50;1.50;;;18.50;98.00;;;;;;5115383;28;20925;-65
2021/07/18 00:31:37;;;;;;;1.63;1.33;;;18.40;98.00;;;;;;5114507;28;20857;-65
2021/07/18 00:34:05;;;;;;;1.60;1.50;;;18.40;98.00;;;;;;5115463;28;20945;-65
2021/07/18 00:36:33;;;;;;;3.33;1.87;;;18.30;98.00;;;;;;5115452;28;20447;-65
2021/07/18 00:39:01;;;;;;;3.67;1.70;;;18.20;98.00;;;;;;5115052;28;20514;-65
2021/07/18 00:41:29;;;;;;;2.10;1.97;;;18.30;98.00;;;;;;5115318;28;20494;-65
2021/07/18 00:43:56;;;;;;;7.00;1.83;;;18.20;98.00;;;;;;5114952;28;21034;-65
2021/07/18 00:46:24;;;;;;;3.67;2.23;;;18.10;98.00;;;;;;5115176;28;20926;-65
2021/07/18 00:48:51;;;;;;;1.40;1.40;;;18.10;98.00;;;;;;5115007;28;20447;-65
2021/07/18 00:51:18;;;;;;;2.20;1.90;;;18.00;98.00;;;;;;5114760;28;20491;-65
2021/07/18 00:53:45;;;;;;;2.27;1.63;;;18.00;98.00;;;;;;5114787;28;20458;-65
2021/07/18 00:56:13;;;;;;;1.73;1.40;;;17.90;98.00;;;;;;5114984;28;20478;-65
2021/07/18 00:58:44;;;;;;;2.03;1.43;;;17.90;98.00;;;;;;5114819;28;20514;-65
2021/07/18 01:01:13;;;;;;;1.60;1.40;;;17.90;98.00;;;;;;5114935;28;20458;-65
2021/07/18 01:03:40;;;;;;;1.70;1.50;;;17.90;98.00;;;;;;5114748;28;20451;-65
2021/07/18 01:06:07;;;;;;;1.47;1.37;;;17.80;98.00;;;;;;5115082;28;20462;-65
2021/07/18 01:08:34;;;;;;;2.57;1.77;;;17.70;98.00;;;;;;5114759;28;20875;-65
2021/07/18 01:11:01;;;;;;;1.30;1.30;;;17.70;98.00;;;;;;5114765;28;20982;-64
2021/07/18 01:13:28;;;;;;;2.23;1.63;;;17.70;98.00;;;;;;5114710;27;20512;-65
2021/07/18 01:15:57;;;;;;;3.07;1.60;;;17.90;98.00;;;;;;5114819;28;20455;-65
2021/07/18 01:18:24;;;;;;;2.43;1.80;;;17.90;98.00;;;;;;5113995;28;20510;-65
2021/07/18 01:20:52;;;;;;;1.30;1.30;;;17.90;98.00;;;;;;5114626;28;20455;-65
2021/07/18 01:23:20;;;;;;;2.27;1.50;;;17.90;98.00;;;;;;5114562;28;20455;-65
2021/07/18 01:25:52;;;;;;;2.03;1.93;;;17.90;98.00;;;;;;5114433;28;20510;-65
2021/07/18 01:28:20;;;;;;;1.37;1.30;;;17.90;98.00;;;;;;5114387;28;20464;-65
2021/07/18 01:30:48;;;;;;;1.60;1.50;;;17.80;98.00;;;;;;5114524;28;20957;-64
2021/07/18 01:33:16;;;;;;;1.60;1.50;;;17.80;98.00;;;;;;5114269;28;20455;-65
2021/07/18 01:35:43;;;;;;;2.40;1.93;;;17.80;98.00;;;;;;5114200;28;20443;-65
2021/07/18 01:38:13;;;;;;;1.73;1.30;;;17.60;98.00;;;;;;5114211;28;20532;-65
2021/07/18 01:40:42;;;;;;;2.73;1.63;;;17.60;98.00;;;;;;5114485;28;20520;-64
2021/07/18 01:43:09;;;;;;;2.13;1.57;;;17.50;98.00;;;;;;5114324;28;21006;-65
2021/07/18 01:45:36;;;;;;;1.90;1.50;;;17.50;98.00;;;;;;5114258;28;20470;-64
2021/07/18 01:48:04;;;;;;;2.03;1.70;;;17.50;98.00;;;;;;5113837;28;20483;-65
2021/07/18 01:50:32;;;;;;;2.80;1.50;;;17.50;98.00;;;;;;5114071;28;20455;-65
2021/07/18 01:53:00;;;;;;;3.17;2.47;;;17.50;98.00;;;;;;5113689;28;20455;-65
2021/07/18 01:55:28;;;;;;;2.37;1.60;;;17.40;98.00;;;;;;5113738;28;20827;-64
2021/07/18 01:57:56;;;;;;;2.27;1.70;;;17.40;98.00;;;;;;5113671;28;20451;-64
2021/07/18 02:00:25;;;;;;;1.57;1.30;;;17.40;98.00;;;;;;5113513;28;20487;-65
2021/07/18 02:02:53;;;;;;;2.57;1.80;;;17.40;98.00;;;;;;5113571;28;20500;-65
2021/07/18 02:05:22;;;;;;;1.80;1.37;;;17.30;98.00;;;;;;5113248;28;20455;-65
2021/07/18 02:07:50;;;;;;;2.20;1.97;;;17.30;98.00;;;;;;5113577;28;20880;-65
2021/07/18 02:10:21;;;;;;;1.23;1.20;;;17.50;98.00;;;;;;5112476;28;20455;-64
2021/07/18 02:12:49;;;;;;;1.67;1.40;;;17.50;98.00;;;;;;5113489;28;20490;-64
2021/07/18 02:15:19;;;;;;;1.40;1.20;;;17.40;98.00;;;;;;5113398;28;20447;-65
2021/07/18 02:17:46;;;;;;;1.43;1.37;;;17.30;98.00;;;;;;5113528;28;20486;-65
2021/07/18 02:20:16;;;;;;;2.07;1.53;;;17.30;98.00;;;;;;5113346;28;20522;-65
2021/07/18 02:22:45;;;;;;;1.53;1.47;;;17.40;98.00;;;;;;5112091;28;20483;-65
2021/07/18 02:25:13;;;;;;;1.80;1.70;;;17.40;98.00;;;;;;5113211;28;20502;-65
2021/07/18 02:27:41;;;;;;;2.13;1.67;;;17.30;98.00;;;;;;5113280;28;20498;-64
2021/07/18 02:30:10;;;;;;;2.77;1.80;;;17.30;98.00;;;;;;5113175;28;20482;-65
2021/07/18 02:32:41;;;;;;;3.63;2.07;;;17.30;98.00;;;;;;5113352;28;20459;-64
2021/07/18 02:35:11;;;;;;;1.57;1.50;;;17.40;98.00;;;;;;5113224;28;20447;-65
2021/07/18 02:37:38;;;;;;;2.30;1.73;;;17.30;98.00;;;;;;5113374;28;20451;-65
2021/07/18 02:40:07;;;;;;;1.97;1.53;;;17.20;98.00;;;;;;5112872;28;20571;-64
2021/07/18 02:42:35;;;;;;;1.83;1.57;;;17.20;98.00;;;;;;5112709;28;20459;-65
2021/07/18 02:45:02;;;;;;;1.70;1.60;;;17.20;98.00;;;;;;5112635;28;20513;-64
2021/07/18 02:47:30;;;;;;;2.50;1.80;;;17.30;98.00;;;;;;5111858;28;20509;-65
2021/07/18 02:49:59;;;;;;;1.50;1.40;;;17.20;98.00;;;;;;5112826;28;20447;-65
2021/07/18 02:52:26;;;;;;;1.60;1.60;;;17.20;98.00;;;;;;5113195;28;20459;-65
2021/07/18 02:54:55;;;;;;;1.43;1.40;;;17.20;98.00;;;;;;5112974;28;20497;-65
2021/07/18 02:57:22;;;;;;;1.47;1.40;;;17.10;98.00;;;;;;5112965;28;20507;-64
2021/07/18 02:59:49;;;;;;;2.40;1.53;;;17.10;98.00;;;;;;5112837;28;20540;-65
2021/07/18 03:02:16;;;;;;;2.00;1.50;;;17.10;98.00;;;;;;5112878;28;20451;-64
2021/07/18 03:04:44;;;;;;;2.93;1.67;;;17.10;98.00;;;;;;5111605;28;20487;-64
2021/07/18 03:07:12;;;;;;;1.80;1.40;;;17.10;98.00;;;;;;5111162;28;20451;-65
2021/07/18 03:09:39;;;;;;;2.20;1.67;;;17.00;98.00;;;;;;5112242;28;20447;-65
2021/07/18 03:12:08;;;;;;;4.13;2.20;;;17.10;98.00;;;;;;5112617;28;20501;-64
2021/07/18 03:14:36;;;;;;;1.50;1.30;;;17.00;98.00;;;;;;5112071;28;20519;-64
2021/07/18 03:17:03;;;;;;;2.47;1.40;;;17.00;98.00;;;;;;5111192;28;20888;-64
2021/07/18 03:19:30;;;;;;;1.70;1.60;;;17.00;98.00;;;;;;5112200;28;20514;-64
2021/07/18 03:21:57;;;;;;;1.30;1.20;;;17.00;98.00;;;;;;5111877;28;20491;-65
2021/07/18 03:24:25;;;;;;;1.53;1.20;;;16.90;98.00;;;;;;5111917;28;21002;-64
2021/07/18 03:26:53;;;;;;;1.73;1.40;;;17.00;98.00;;;;;;5112147;28;21109;-65
2021/07/18 03:29:20;;;;;;;1.87;1.53;;;16.90;98.00;;;;;;5110760;28;20455;-65
2021/07/18 03:31:47;;;;;;;2.13;1.60;;;16.80;98.00;;;;;;5112469;28;20520;-65
2021/07/18 03:34:14;;;;;;;1.70;1.43;;;16.90;98.00;;;;;;5112087;28;20487;-65
2021/07/18 03:36:44;;;;;;;1.80;1.70;;;16.90;98.00;;;;;;5112166;28;20454;-64
2021/07/18 03:39:11;;;;;;;1.40;1.33;;;16.90;98.00;;;;;;5111800;28;20510;-65
2021/07/18 03:41:39;;;;;;;2.00;1.60;;;16.90;98.00;;;;;;5114741;28;20535;-65
2021/07/18 03:44:07;;;;;;;1.80;1.57;;;16.80;98.00;;;;;;5119039;28;20455;-65
2021/07/18 03:46:34;;;;;;;1.47;1.20;;;16.70;98.00;;;;;;5118726;28;20527;-65
2021/07/18 03:49:01;;;;;;;2.73;1.90;;;16.60;98.00;;;;;;5117728;28;20447;-64
2021/07/18 03:51:28;;;;;;;1.63;1.63;;;16.70;98.00;;;;;;5118779;28;20940;-65
2021/07/18 03:53:55;;;;;;;1.40;1.30;;;16.80;98.00;;;;;;5117777;28;20486;-64
2021/07/18 03:56:23;;;;;;;1.43;1.20;;;16.80;98.00;;;;;;5118966;28;20495;-64
2021/07/18 03:58:51;;;;;;;2.13;1.50;;;16.90;98.00;;;;;;5118739;28;20454;-65
2021/07/18 04:01:19;;;;;;;1.50;1.47;;;16.80;98.00;;;;;;5117687;28;20461;-64
2021/07/18 04:03:47;;;;;;;2.30;1.87;;;16.80;98.00;;;;;;5118509;28;20508;-64
2021/07/18 04:06:15;;;;;;;2.67;1.70;;;16.80;98.00;;;;;;5117429;28;20462;-65
2021/07/18 04:08:42;;;;;;;1.30;1.30;;;16.80;98.00;;;;;;5117399;28;20515;-65
2021/07/18 04:11:10;;;;;;;1.87;1.57;;;16.80;98.00;;;;;;5118825;27;20973;-64
2021/07/18 04:13:37;;;;;;;1.67;1.40;;;16.80;98.00;;;;;;5118579;28;20516;-65
2021/07/18 04:16:07;;;;;;;1.40;1.30;;;16.80;98.00;;;;;;5119015;28;20455;-64
2021/07/18 04:18:35;;;;;;;3.00;1.40;;;16.90;98.00;;;;;;5118677;28;20989;-65
2021/07/18 04:21:02;;;;;;;4.17;1.70;;;16.90;98.00;;;;;;5118626;28;20486;-64
2021/07/18 04:23:30;;;;;;;2.30;1.70;;;16.90;98.00;;;;;;5118332;28;20529;-65
2021/07/18 04:25:58;;;;;;;1.40;1.40;;;17.00;98.00;;;;;;5118331;28;20531;-65
2021/07/18 04:28:25;;;;;;;2.23;1.50;;;16.90;98.00;;;;;;5118279;28;21004;-65
2021/07/18 04:30:53;;;;;;;2.33;1.63;;;16.80;98.00;;;;;;5118510;28;20552;-64
2021/07/18 04:33:23;;;;;;;2.47;1.70;;;16.80;98.00;;;;;;5116861;28;20443;-65
2021/07/18 04:35:50;;;;;;;1.83;1.40;;;16.80;98.00;;;;;;5118352;28;20443;-64
2021/07/18 04:38:18;;;;;;;2.57;1.33;;;16.70;98.00;;;;;;5118081;28;20447;-65
2021/07/18 04:40:45;;;;;;;1.67;1.63;;;16.70;98.00;;;;;;5100130;28;20885;-64
2021/07/18 04:43:13;;;;;;;2.17;1.77;;;16.60;98.00;;;;;;5118323;28;20459;-65
2021/07/18 04:45:40;;;;;;;3.73;1.40;;;16.60;98.00;;;;;;5118223;28;20454;-64
2021/07/18 04:48:08;;;;;;;1.90;1.60;;;16.60;98.00;;;;;;5118411;28;20451;-64
2021/07/18 04:50:36;;;;;;;2.47;1.70;;;16.70;98.00;;;;;;5118159;28;21022;-65
2021/07/18 04:53:03;;;;;;;1.50;1.40;;;16.80;98.00;;;;;;5115525;27;20480;-64
2021/07/18 04:55:32;;;;;;;1.70;1.53;;;16.80;98.00;;;;;;5114943;28;20482;-64
2021/07/18 04:57:59;;;;;;;1.40;1.40;;;16.90;98.00;;;;;;5115004;28;20454;-65
2021/07/18 05:00:26;;;;;;;1.30;1.10;;;16.90;98.00;;;;;;5113664;28;20554;-65
2021/07/18 05:02:53;;;;;;;1.40;1.23;;;16.90;98.00;;;;;;5114850;28;20473;-64
2021/07/18 05:05:20;;;;;;;1.50;1.50;;;17.00;98.00;;;;;;5114748;28;20542;-65
2021/07/18 05:07:53;;;;;;;2.07;1.67;;;17.10;98.00;;;;;;5114867;28;20490;-65
2021/07/18 05:10:22;;;;;;;2.33;1.93;;;17.20;98.00;;;;;;5114730;28;20486;-65
2021/07/18 05:12:50;;;;;;;1.90;1.60;;;17.20;98.00;;;;;;5114749;28;20508;-64
2021/07/18 05:15:18;;;;;;;1.83;1.33;;;17.30;98.00;;;;;;5114385;28;20478;-65
2021/07/18 05:17:45;;;;;;;1.40;1.27;;;17.30;98.00;;;;;;5114841;28;20482;-64
2021/07/18 05:20:14;;;;;;;2.30;1.73;;;17.20;98.00;;;;;;5114538;28;20537;-64
2021/07/18 05:22:41;;;;;;;1.77;1.50;;;17.20;98.00;;;;;;5114494;28;20459;-65
2021/07/18 05:25:11;;;;;;;1.80;1.40;;;17.20;98.00;;;;;;5114558;28;20828;-64
2021/07/18 05:27:38;;;;;;;1.77;1.50;;;17.30;98.00;;;;;;5114184;28;20481;-64
2021/07/18 05:30:09;;;;;;;2.03;1.77;;;17.30;98.00;;;;;;5114430;28;20487;-65
2021/07/18 05:32:36;;;;;;;2.07;1.30;;;17.30;98.00;;;;;;5113037;28;20929;-65
2021/07/18 05:35:04;;;;;;;2.17;1.50;;;17.30;98.00;;;;;;5114778;28;20459;-64
2021/07/18 05:37:32;;;;;;;1.30;1.20;;;17.40;98.00;;;;;;5113011;28;20482;-65
2021/07/18 05:39:59;;;;;;;1.33;1.30;;;17.40;98.00;;;;;;5113917;28;20989;-65
2021/07/18 05:42:28;;;;;;;1.80;1.77;;;17.50;98.00;;;;;;5113405;28;20487;-64
2021/07/18 05:44:55;;;;;;;1.47;1.40;;;17.60;98.00;;;;;;5114056;28;20516;-65
2021/07/18 05:47:22;;;;;;;1.70;1.60;;;17.50;98.00;;;;;;5114104;28;20459;-65
2021/07/18 05:49:49;;;;;;;1.97;1.67;;;17.60;98.00;;;;;;5114088;28;20487;-64
2021/07/18 05:52:16;;;;;;;1.80;1.70;;;17.60;98.00;;;;;;5113653;28;20508;-65
2021/07/18 05:54:43;;;;;;;1.70;1.50;;;17.70;98.00;;;;;;5113630;28;20496;-64
2021/07/18 05:57:10;;;;;;;3.03;1.70;;;17.80;98.00;;;;;;5113996;28;20490;-64
2021/07/18 05:59:39;;;;;;;1.80;1.60;;;17.80;98.00;;;;;;5113362;28;20965;-65
2021/07/18 06:02:06;;;;;;;2.03;1.33;;;17.70;98.00;;;;;;5113702;28;20961;-65
2021/07/18 06:04:33;;;;;;;1.40;1.33;;;17.80;98.00;;;;;;5113045;28;20443;-64
2021/07/18 06:07:02;;;;;;;2.63;1.40;;;17.90;98.00;;;;;;5113704;28;20459;-65
2021/07/18 06:09:29;;;;;;;1.33;1.20;;;17.90;98.00;;;;;;5111744;28;20806;-64
2021/07/18 06:11:59;;;;;;;1.20;1.10;;;18.00;98.00;;;;;;5113564;28;20491;-64
2021/07/18 06:14:26;;;;;;;1.30;1.30;;;18.10;98.00;;;;;;5112310;28;20494;-64
2021/07/18 06:16:54;;;;;;;1.40;1.20;;;18.20;98.00;;;;;;5113217;28;20489;-64
2021/07/18 06:19:21;;;;;;;2.10;1.60;;;18.30;98.00;;;;;;5112558;28;20507;-65
2021/07/18 06:21:48;;;;;;;1.20;1.20;;;18.40;98.00;;;;;;5112599;28;20522;-64
2021/07/18 06:24:15;;;;;;;1.40;1.40;;;18.40;98.00;;;;;;5112398;28;20494;-64
2021/07/18 06:26:42;;;;;;;1.37;1.33;;;18.40;98.00;;;;;;5112559;28;20443;-65
2021/07/18 06:29:09;;;;;;;1.50;1.20;;;18.40;98.00;;;;;;5113226;28;20933;-65
2021/07/18 06:31:36;;;;;;;2.37;1.73;;;18.60;98.00;;;;;;5112905;28;20475;-65
2021/07/18 06:34:08;;;;;;;1.90;1.47;;;18.60;98.00;;;;;;5113202;28;20492;-65
2021/07/18 06:36:35;;;;;;;1.80;1.50;;;18.70;98.00;;;;;;5095141;28;20486;-64
2021/07/18 06:39:02;;;;;;;1.50;1.50;;;18.70;98.00;;;;;;5113166;28;20497;-64
2021/07/18 06:41:30;;;;;;;1.40;1.33;;;18.70;98.00;;;;;;5112809;28;20522;-64
2021/07/18 06:43:57;;;;;;;1.47;1.20;;;18.80;98.00;;;;;;5111821;28;20532;-64
2021/07/18 06:46:24;;;;;;;1.20;1.00;;;18.80;98.00;;;;;;5111849;28;20493;-63
2021/07/18 06:48:51;;;;;;;1.20;1.00;;;18.80;98.00;;;;;;5112855;28;20856;-65
2021/07/18 06:51:19;;;;;;;1.30;1.20;;;19.00;98.00;;;;;;5112853;28;20840;-64
2021/07/18 06:53:46;;;;;;;2.57;1.77;;;19.10;98.00;;;;;;5094926;28;20482;-64
2021/07/18 06:56:22;;;;;;;1.20;1.20;;;19.20;98.00;;;;;;5113248;28;20504;-63
2021/07/18 06:58:50;;;;;;;1.30;1.20;;;19.20;98.00;;;;;;5111833;28;20458;-65
2021/07/18 07:01:19;;;;;;;1.20;1.20;;;19.30;98.00;;;;;;5112250;28;20522;-63
2021/07/18 07:03:46;;;;;;;1.20;1.10;;;19.50;98.00;;;;;;5112365;28;20813;-63
2021/07/18 07:06:13;;;;;;;1.40;1.20;;;19.70;98.00;;;;;;5112864;28;20455;-64
2021/07/18 07:08:41;;;;;;;2.30;1.90;;;19.70;98.00;;;;;;5112192;28;20515;-64
2021/07/18 07:11:08;;;;;;;1.37;1.27;;;19.70;98.00;;;;;;5112351;28;20499;-64
2021/07/18 07:13:36;;;;;;;1.33;1.23;;;19.80;98.00;;;;;;5112573;28;20794;-64
2021/07/18 07:16:03;;;;;;;1.27;1.23;;;19.80;98.00;;;;;;5110234;28;20904;-65
2021/07/18 07:18:30;;;;;;;1.20;1.00;;;19.80;98.00;;;;;;5112008;28;20833;-64
2021/07/18 07:20:57;;;;;;;1.40;1.30;;;19.80;98.00;;;;;;5111775;28;20514;-64
2021/07/18 07:23:25;;;;;;;1.40;1.30;;;19.80;98.00;;;;;;5112235;28;20559;-64
2021/07/18 07:25:53;;;;;;;1.47;1.30;;;19.90;98.00;;;;;;5112171;28;20458;-65
2021/07/18 07:28:20;;;;;;;1.20;1.10;;;20.00;98.00;;;;;;5112177;28;20494;-64
2021/07/18 07:30:47;;;;;;;1.40;1.37;;;20.10;98.00;;;;;;5111835;28;21003;-63
2021/07/18 07:33:15;;;;;;;1.20;1.00;;;20.00;98.00;;;;;;5112001;28;20494;-64
2021/07/18 07:35:42;;;;;;;1.90;1.30;;;20.10;98.00;;;;;;5112058;28;20878;-62
2021/07/18 07:38:10;;;;;;;1.40;1.20;;;20.30;98.00;;;;;;5105819;28;20464;-63
2021/07/18 07:40:37;;;;;;;4.10;1.20;;;20.40;98.00;;;;;;5105614;28;20983;-63
2021/07/18 07:43:06;;;;;;;1.30;1.13;;;20.40;98.00;;;;;;5095194;28;20854;-64
2021/07/18 07:45:33;;;;;;;1.57;1.50;;;20.50;98.00;;;;;;5089983;28;20479;-63
2021/07/18 07:48:04;;;;;;;1.60;1.50;;;20.50;98.00;;;;;;5090238;28;20528;-64
2021/07/18 07:50:32;;;;;;;2.90;1.40;;;20.60;98.00;;;;;;5091925;28;20508;-63
2021/07/18 07:52:59;;;;;;;2.13;1.80;;;20.90;98.00;;;;;;5107286;28;20458;-65
2021/07/18 07:55:28;;;;;;;1.53;1.20;;;21.20;98.00;;;;;;5094381;28;20454;-64
2021/07/18 07:57:55;;;;;;;1.43;1.30;;;21.30;98.00;;;;;;5093775;28;20512;-63
2021/07/18 08:00:24;;;;;;;1.20;1.10;;;21.50;98.00;;;;;;5102818;28;20475;-63
2021/07/18 08:02:51;;;;;;;1.67;1.30;;;21.80;98.00;;;;;;5098508;28;20493;-64
2021/07/18 08:05:20;;;;;;;1.53;1.20;;;21.90;98.00;;;;;;5104629;28;20553;-65
2021/07/18 08:07:47;;;;;;;1.40;1.40;;;22.00;98.00;;;;;;5086256;28;20483;-63
2021/07/18 08:10:16;;;;;;;1.20;1.10;;;21.90;98.00;;;;;;5103158;28;20518;-63
2021/07/18 08:12:45;;;;;;;1.47;1.40;;;22.10;98.00;;;;;;5090218;28;20479;-65
2021/07/18 08:15:14;;;;;;;1.30;1.30;;;22.30;98.00;;;;;;5090767;28;20488;-64
2021/07/18 08:17:43;;;;;;;1.43;1.23;;;22.30;98.00;;;;;;5090896;28;20452;-65
2021/07/18 08:20:12;;;;;;;1.40;1.30;;;22.40;98.00;;;;;;5097855;28;20535;-65
2021/07/18 08:22:41;;;;;;;1.30;1.30;;;22.60;98.00;;;;;;5103066;28;20463;-65
2021/07/18 08:25:09;;;;;;;2.17;1.70;;;22.80;98.00;;;;;;5106947;28;20498;-65
2021/07/18 08:27:37;;;;;;;1.20;1.20;;;22.90;98.00;;;;;;5096426;28;20452;-64
2021/07/18 08:30:09;;;;;;;1.20;1.10;;;22.90;98.00;;;;;;5106210;28;20450;-66
2021/07/18 08:32:38;;;;;;;1.80;1.33;;;23.00;98.00;;;;;;5101907;28;20471;-66
2021/07/18 08:35:09;;;;;;;1.30;1.30;;;23.00;98.00;;;;;;5097885;28;20487;-66
2021/07/18 08:37:37;;;;;;;1.80;1.30;;;22.70;98.00;;;;;;5107754;28;20977;-65
2021/07/18 08:40:05;;;;;;;1.30;1.03;;;22.60;98.00;;;;;;5105428;28;21061;-67
2021/07/18 08:42:34;;;;;;;1.60;1.30;;;22.70;98.00;;;;;;5101452;28;20574;-67
2021/07/18 08:45:02;;;;;;;1.27;1.17;;;22.80;98.00;;;;;;5106389;28;20512;-65
2021/07/18 08:47:33;;;;;;;1.40;1.20;;;22.80;98.00;;;;;;5081567;28;20464;-65
2021/07/18 08:50:00;;;;;;;1.40;1.20;;;22.80;98.00;;;;;;5088446;28;20516;-65
2021/07/18 08:52:29;;;;;;;1.80;1.43;;;23.00;98.00;;;;;;5093985;28;20970;-65
2021/07/18 08:54:56;;;;;;;1.97;1.57;;;23.10;98.00;;;;;;5101803;28;20448;-66
2021/07/18 08:57:26;;;;;;;1.40;1.30;;;23.00;98.00;;;;;;5107363;28;20863;-66
2021/07/18 08:59:53;;;;;;;1.40;1.33;;;23.10;98.00;;;;;;5109404;28;20471;-66
2021/07/18 09:02:20;;;;;;;1.30;1.10;;;23.20;98.00;;;;;;5110290;28;20873;-66
2021/07/18 09:04:48;;;;;;;1.40;1.30;;;23.10;98.00;;;;;;5101919;28;20463;-67
2021/07/18 09:07:18;;;;;;;1.30;1.20;;;23.20;98.00;;;;;;5097713;28;20470;-66
2021/07/18 09:09:48;;;;;;;1.37;1.33;;;23.30;98.00;;;;;;5093154;28;20462;-66
2021/07/18 09:12:17;;;;;;;1.50;1.20;;;23.50;98.00;;;;;;5101414;28;20456;-67
2021/07/18 09:14:47;;;;;;;1.30;1.10;;;23.70;98.00;;;;;;5102838;28;21235;-66
2021/07/18 09:17:16;;;;;;;1.50;1.40;;;23.80;98.00;;;;;;5110502;28;20483;-65
2021/07/18 09:19:45;;;;;;;1.37;1.30;;;23.90;98.00;;;;;;5096126;28;20464;-66
2021/07/18 09:22:18;;;;;;;1.37;1.23;;;23.90;98.00;;;;;;5094116;28;20495;-66
2021/07/18 09:24:49;;;;;;;1.30;1.30;;;24.00;98.00;;;;;;5094196;28;20478;-65
2021/07/18 09:27:19;;;;;;;1.70;1.30;;;24.00;98.00;;;;;;5094103;28;20512;-66
2021/07/18 09:29:48;;;;;;;1.50;1.40;;;24.10;98.00;;;;;;5094286;28;21172;-66
2021/07/18 09:32:18;;;;;;;1.43;1.20;;;24.10;98.00;;;;;;5094309;28;20880;-66
2021/07/18 09:34:46;;;;;;;1.40;1.30;;;24.10;98.00;;;;;;5094114;28;20495;-66
2021/07/18 09:37:19;;;;;;;1.90;1.40;;;24.40;98.00;;;;;;5093938;28;20483;-65
2021/07/18 09:39:58;;;;;;;1.20;1.00;;;24.40;97.80;;;;;;5092006;28;20981;-66
2021/07/18 09:42:28;;;;;;;1.50;1.40;;;24.50;98.00;;;;;;5093568;28;20523;-65
2021/07/18 09:44:55;;;;;;;1.27;1.23;;;24.50;97.30;;;;;;5092466;28;20456;-65
2021/07/18 09:47:23;;;;;;;1.70;1.67;;;24.60;98.00;;;;;;5092319;28;20452;-65
2021/07/18 09:49:50;;;;;;;2.80;1.43;;;24.60;97.60;;;;;;5093469;28;20499;-66
2021/07/18 09:52:27;;;;;;;1.80;1.60;;;24.60;96.70;;;;;;5093557;28;20487;-67
2021/07/18 09:54:57;;;;;;;1.40;1.30;;;24.80;96.90;;;;;;5092252;28;20535;-67
2021/07/18 09:57:37;;;;;;;1.27;1.27;;;24.90;97.70;;;;;;5092180;28;20464;-66
2021/07/18 10:00:10;;;;;;;1.60;1.40;;;25.10;96.40;;;;;;5090649;28;20448;-67
2021/07/18 10:02:40;;;;;;;2.27;1.33;;;25.20;96.90;;;;;;5093402;28;21046;-68
2021/07/18 10:05:15;;;;;;;1.40;1.33;;;25.30;96.80;;;;;;5093349;28;20468;-68
2021/07/18 10:07:42;;;;;;;1.30;1.20;;;25.40;94.30;;;;;;5093280;28;20494;-68
2021/07/18 10:10:12;;;;;;;2.60;1.50;;;25.40;93.90;;;;;;5093006;28;20493;-66
2021/07/18 10:12:40;;;;;;;2.03;1.43;;;25.50;93.60;;;;;;5093103;28;20448;-68
2021/07/18 10:15:08;;;;;;;1.60;1.50;;;25.60;92.90;;;;;;5093154;28;20487;-67
2021/07/18 10:17:36;;;;;;;1.70;1.43;;;25.70;93.00;;;;;;5093139;28;20544;-68
2021/07/18 10:20:06;;;;;;;1.50;1.20;;;25.80;92.30;;;;;;5093052;28;20545;-68
2021/07/18 10:22:34;;;;;;;1.30;1.23;;;25.80;91.30;;;;;;5093182;28;21009;-66
2021/07/18 10:25:01;;;;;;;1.80;1.20;;;26.00;90.50;;;;;;5092832;28;20529;-67
2021/07/18 10:27:30;;;;;;;1.63;1.57;;;26.10;89.20;;;;;;5092831;28;20488;-66
2021/07/18 10:30:00;;;;;;;1.43;1.37;;;26.20;88.20;;;;;;5092983;28;20509;-66
2021/07/18 10:32:27;;;;;;;1.83;1.40;;;26.10;88.80;;;;;;5092834;28;20509;-66
2021/07/18 10:34:55;;;;;;;1.50;1.50;;;26.10;89.40;;;;;;5092715;28;20460;-68
2021/07/18 10:37:37;;;;;;;1.67;1.40;;;26.20;87.50;;;;;;5092973;28;20517;-67
2021/07/18 10:40:11;;;;;;;2.67;2.00;;;26.30;89.50;;;;;;5092612;28;21156;-67
2021/07/18 10:42:41;;;;;;;1.37;1.20;;;26.50;88.50;;;;;;5093028;28;20487;-67
2021/07/18 10:45:27;;;;;;;1.80;1.50;;;26.60;88.90;;;;;;5092558;28;20518;-67
2021/07/18 10:48:02;;;;;;;1.30;1.30;;;26.70;87.90;;;;;;5092673;28;20448;-67
2021/07/18 10:50:49;;;;;;;1.83;1.50;;;26.90;86.40;;;;;;5092118;28;20459;-69
2021/07/18 10:53:19;;;;;;;1.43;1.30;;;27.00;85.30;;;;;;5092510;28;20459;-67
2021/07/18 10:55:47;;;;;;;1.53;1.30;;;27.00;85.50;;;;;;5092444;28;20460;-67
2021/07/18 10:58:51;;;;;;;1.20;1.20;;;27.10;86.60;;;;;;5092692;28;20495;-67
2021/07/18 11:01:46;;;;;;;1.50;1.30;;;27.30;85.70;;;;;;5085830;28;20487;-67
2021/07/18 11:04:42;;;;;;;1.50;1.30;;;27.50;83.70;;;;;;5055984;28;20496;-67
2021/07/18 11:07:37;;;;;;;1.40;1.30;;;27.60;83.50;;;;;;5092122;28;20487;-66
2021/07/18 11:10:17;;;;;;;1.37;1.27;;;27.80;80.80;;;;;;5091930;28;20472;-67
2021/07/18 11:12:46;;;;;;;1.53;1.27;;;27.90;80.50;;;;;;5092186;28;20456;-68
2021/07/18 11:15:35;;;;;;;1.83;1.50;;;28.00;80.90;;;;;;5092024;28;21000;-67
2021/07/18 11:18:06;;;;;;;1.43;1.33;;;28.10;80.50;;;;;;5091938;28;20456;-68
2021/07/18 11:20:45;;;;;;;6.70;1.40;;;28.10;80.10;;;;;;5091878;28;20505;-67
2021/07/18 11:23:13;;;;;;;2.50;1.60;;;28.10;78.70;;;;;;5091820;28;20480;-66
2021/07/18 11:25:45;;;;;;;1.57;1.50;;;28.20;82.00;;;;;;5091523;28;20541;-67
2021/07/18 11:28:55;;;;;;;1.50;1.30;;;28.40;79.90;;;;;;5091788;28;20452;-67
2021/07/18 11:31:28;;;;;;;1.80;1.60;;;28.40;82.80;;;;;;5091779;28;20463;-68
2021/07/18 11:34:00;;;;;;;2.50;1.50;;;28.70;81.60;;;;;;5091979;28;20460;-68
2021/07/18 11:36:48;;;;;;;1.83;1.50;;;28.90;79.00;;;;;;5092008;28;20492;-67
2021/07/18 11:39:17;;;;;;;2.03;1.50;;;29.00;79.30;;;;;;5091887;28;20502;-67
2021/07/18 11:41:45;;;;;;;2.23;1.53;;;29.00;81.70;;;;;;5091863;28;20487;-68
2021/07/18 11:44:13;;;;;;;1.30;1.20;;;29.10;79.10;;;;;;5091851;28;20954;-67
2021/07/18 11:46:42;;;;;;;1.60;1.50;;;29.30;79.80;;;;;;5090767;28;20498;-67
2021/07/18 11:49:14;;;;;;;2.00;1.60;;;29.50;77.80;;;;;;5074035;28;20479;-67
2021/07/18 11:51:45;;;;;;;1.50;1.40;;;29.50;79.50;;;;;;5091822;28;20488;-67
2021/07/18 11:54:13;;;;;;;2.23;1.53;;;29.70;78.30;;;;;;5090318;28;20514;-68
2021/07/18 11:56:42;;;;;;;2.07;1.60;;;29.90;78.20;;;;;;5091831;28;20471;-67
2021/07/18 11:59:11;;;;;;;1.60;1.23;;;30.00;76.50;;;;;;5091703;28;20440;-67
2021/07/18 12:01:39;;;;;;;1.90;1.40;;;30.20;80.30;;;;;;5091724;28;20515;-66
2021/07/18 12:04:08;;;;;;;1.80;1.63;;;30.30;76.60;;;;;;5095519;28;20459;-67
2021/07/18 12:06:38;;;;;;;2.20;1.50;;;30.30;74.60;;;;;;5095995;28;20456;-67
2021/07/18 12:09:13;;;;;;;1.67;1.50;;;30.30;77.40;;;;;;5094454;28;20448;-67
2021/07/18 12:11:40;;;;;;;1.40;1.37;;;30.40;74.60;;;;;;5095949;28;20459;-67
2021/07/18 12:14:09;;;;;;;2.17;1.60;;;30.50;75.90;;;;;;5094415;28;20452;-68
2021/07/18 12:16:37;;;;;;;2.13;1.80;;;30.60;77.70;;;;;;5095558;28;20455;-68
2021/07/18 12:19:05;;;;;;;2.30;1.70;;;30.60;76.10;;;;;;5095523;28;20942;-66
2021/07/18 12:21:34;;;;;;;2.83;2.00;;;30.60;76.70;;;;;;5095069;28;21082;-67
2021/07/18 12:24:21;;;;;;;1.57;1.30;;;30.50;76.00;;;;;;5095225;28;20462;-67
2021/07/18 12:26:59;;;;;;;1.57;1.23;;;30.40;78.10;;;;;;5095452;28;20971;-67
2021/07/18 12:29:27;;;;;;;1.87;1.30;;;30.50;77.00;;;;;;5094978;28;20514;-68
2021/07/18 12:31:54;;;;;;;1.73;1.60;;;30.50;76.50;;;;;;5095240;28;20874;-67
2021/07/18 12:34:27;;;;;;;1.60;1.50;;;30.30;75.90;;;;;;5094950;28;20486;-67
2021/07/18 12:36:57;;;;;;;2.40;1.77;;;30.20;78.90;;;;;;5093860;28;20864;-67
2021/07/18 12:39:28;;;;;;;1.90;1.50;;;30.30;78.50;;;;;;5094642;28;20451;-66
2021/07/18 12:41:57;;;;;;;1.60;1.60;;;30.50;77.60;;;;;;5095057;28;20486;-66
2021/07/18 12:44:27;;;;;;;2.07;1.60;;;30.50;75.10;;;;;;5093702;28;20459;-67
2021/07/18 12:47:15;;;;;;;5.17;2.13;;;30.60;75.10;;;;;;5094836;28;20973;-66
2021/07/18 12:49:47;;;;;;;3.87;2.07;;;30.60;75.90;;;;;;5094896;28;20492;-68
2021/07/18 12:52:14;;;;;;;3.20;1.87;;;30.70;75.40;;;;;;5093355;28;20480;-66
2021/07/18 12:54:43;;;;;;;2.30;1.90;;;30.70;75.00;;;;;;5094735;28;20460;-66
2021/07/18 12:57:10;;;;;;;4.10;2.07;;;30.90;74.70;;;;;;5094691;28;20491;-67
2021/07/18 12:59:37;;;;;;;2.30;1.77;;;31.20;76.10;;;;;;5094680;28;21047;-67